createdAt,value
2019-05-15T00:00:12.060Z,1023.13
2019-05-15T00:01:23.658Z,1023.17
2019-05-15T00:02:35.840Z,1023.13
2019-05-15T00:03:49.227Z,1023.14
2019-05-15T00:05:01.369Z,1023.14
2019-05-15T00:06:11.919Z,1023.12
2019-05-15T00:07:24.221Z,1023.1
2019-05-15T00:08:39.508Z,1023.08
2019-05-15T00:09:50.951Z,1023.07
2019-05-15T00:11:01.475Z,1023.1
2019-05-15T00:12:13.445Z,1023.09
2019-05-15T00:13:24.178Z,1023.11
2019-05-15T00:14:35.900Z,1023.05
2019-05-15T00:15:48.616Z,1023.08
2019-05-15T00:16:59.545Z,1023.08
2019-05-15T00:18:11.128Z,1023.07
2019-05-15T00:19:23.386Z,1023.05
2019-05-15T00:20:33.735Z,1023.04
2019-05-15T00:21:44.595Z,1023.04
2019-05-15T00:22:58.976Z,1023.05
2019-05-15T00:24:13.042Z,1023.05
2019-05-15T00:25:25.443Z,1023.05
2019-05-15T00:26:38.343Z,1023.03
2019-05-15T00:27:50.849Z,1022.99
2019-05-15T00:29:11.400Z,1023.03
2019-05-15T00:30:29.482Z,1023.04
2019-05-15T00:31:41.680Z,1023.06
2019-05-15T00:32:53.854Z,1023.03
2019-05-15T00:34:04.127Z,1023.01
2019-05-15T00:35:21.188Z,1023
2019-05-15T00:36:35.181Z,1023.02
2019-05-15T00:37:45.921Z,1022.99
2019-05-15T00:38:59.154Z,1023
2019-05-15T00:40:11.430Z,1023
2019-05-15T00:41:23.418Z,1023.02
2019-05-15T00:42:51.232Z,1022.99
2019-05-15T00:44:03.126Z,1023
2019-05-15T00:45:14.212Z,1023.01
2019-05-15T00:46:29.002Z,1023.03
2019-05-15T00:47:41.006Z,1023.07
2019-05-15T00:48:51.689Z,1023.01
2019-05-15T00:50:04.334Z,1023.01
2019-05-15T00:51:19.446Z,1023.04
2019-05-15T00:52:31.414Z,1022.98
2019-05-15T00:53:41.629Z,1022.96
2019-05-15T00:54:53.213Z,1023.01
2019-05-15T00:56:03.985Z,1023.07
2019-05-15T00:57:16.346Z,1023.06
2019-05-15T00:58:28.870Z,1023.06
2019-05-15T00:59:40.758Z,1023.07
2019-05-15T01:00:51.262Z,1023.04
2019-05-15T01:02:02.059Z,1023.03
2019-05-15T01:03:13.754Z,1023.02
2019-05-15T01:04:27.946Z,1023.01
2019-05-15T01:05:39.416Z,1022.96
2019-05-15T01:06:52.702Z,1022.96
2019-05-15T01:08:04.167Z,1022.99
2019-05-15T01:09:15.847Z,1022.97
2019-05-15T01:10:28.153Z,1022.96
2019-05-15T01:11:41.359Z,1022.94
2019-05-15T01:12:51.750Z,1022.99
2019-05-15T01:14:03.640Z,1022.95
2019-05-15T01:15:19.088Z,1022.92
2019-05-15T01:16:29.546Z,1022.95
2019-05-15T01:17:41.209Z,1022.92
2019-05-15T01:18:52.103Z,1022.91
2019-05-15T01:20:03.901Z,1022.87
2019-05-15T01:21:18.583Z,1022.86
2019-05-15T01:22:30.675Z,1022.85
2019-05-15T01:23:42.011Z,1022.81
2019-05-15T01:24:53.448Z,1022.8
2019-05-15T01:26:04.261Z,1022.77
2019-05-15T01:27:18.229Z,1022.76
2019-05-15T01:28:29.458Z,1022.78
2019-05-15T01:29:44.949Z,1022.77
2019-05-15T01:30:59.259Z,1022.73
2019-05-15T01:32:11.521Z,1022.71
2019-05-15T01:33:22.044Z,1022.71
2019-05-15T01:34:33.584Z,1022.74
2019-05-15T01:35:46.031Z,1022.72
2019-05-15T01:36:56.241Z,1022.75
2019-05-15T01:38:09.014Z,1022.72
2019-05-15T01:39:19.252Z,1022.72
2019-05-15T01:40:29.635Z,1022.73
2019-05-15T01:41:41.544Z,1022.72
2019-05-15T01:42:54.739Z,1022.7
2019-05-15T01:44:05.697Z,1022.7
2019-05-15T01:45:18.894Z,1022.66
2019-05-15T01:46:31.438Z,1022.68
2019-05-15T01:47:44.444Z,1022.68
2019-05-15T01:48:55.393Z,1022.66
2019-05-15T01:50:09.138Z,1022.64
2019-05-15T01:51:21.316Z,1022.63
2019-05-15T01:52:33.664Z,1022.63
2019-05-15T01:53:44.476Z,1022.65
2019-05-15T01:54:58.094Z,1022.63
2019-05-15T01:56:09.771Z,1022.64
2019-05-15T01:57:21.483Z,1022.63
2019-05-15T01:58:33.870Z,1022.59
2019-05-15T01:59:54.692Z,1022.62
2019-05-15T02:01:09.250Z,1022.57
2019-05-15T02:02:21.874Z,1022.54
2019-05-15T02:03:33.268Z,1022.53
2019-05-15T02:04:43.781Z,1022.57
2019-05-15T02:05:58.473Z,1022.52
2019-05-15T02:07:10.749Z,1022.52
2019-05-15T02:08:21.614Z,1022.51
2019-05-15T02:09:33.827Z,1022.47
2019-05-15T02:10:46.088Z,1022.49
2019-05-15T02:11:59.360Z,1022.44
2019-05-15T02:13:11.441Z,1022.43
2019-05-15T02:14:21.572Z,1022.42
2019-05-15T02:15:33.777Z,1022.43
2019-05-15T02:16:44.800Z,1022.43
2019-05-15T02:17:55.790Z,1022.4
2019-05-15T02:19:09.057Z,1022.37
2019-05-15T02:20:19.946Z,1022.41
2019-05-15T02:21:31.906Z,1022.37
2019-05-15T02:22:43.037Z,1022.32
2019-05-15T02:23:53.789Z,1022.33
2019-05-15T02:25:03.780Z,1022.29
2019-05-15T02:26:15.980Z,1022.32
2019-05-15T02:27:29.353Z,1022.31
2019-05-15T02:28:41.758Z,1022.31
2019-05-15T02:30:10.300Z,1022.29
2019-05-15T02:31:43.353Z,1022.27
2019-05-15T02:32:58.675Z,1022.25
2019-05-15T02:34:13.354Z,1022.28
2019-05-15T02:35:30.465Z,1022.27
2019-05-15T02:36:42.275Z,1022.23
2019-05-15T02:37:54.697Z,1022.26
2019-05-15T02:39:11.742Z,1022.29
2019-05-15T02:40:24.273Z,1022.27
2019-05-15T02:41:40.904Z,1022.27
2019-05-15T02:42:54.212Z,1022.25
2019-05-15T02:44:11.005Z,1022.24
2019-05-15T02:45:22.970Z,1022.24
2019-05-15T02:46:42.598Z,1022.27
2019-05-15T02:47:54.784Z,1022.26
2019-05-15T02:49:09.543Z,1022.25
2019-05-15T02:50:21.875Z,1022.25
2019-05-15T02:51:34.433Z,1022.25
2019-05-15T02:52:49.932Z,1022.24
2019-05-15T02:54:03.274Z,1022.24
2019-05-15T02:55:15.633Z,1022.25
2019-05-15T02:56:30.219Z,1022.23
2019-05-15T02:57:42.000Z,1022.22
2019-05-15T02:58:54.622Z,1022.23
2019-05-15T03:00:10.679Z,1022.25
2019-05-15T03:01:59.715Z,1022.24
2019-05-15T03:03:12.703Z,1022.3
2019-05-15T03:04:28.806Z,1022.25
2019-05-15T03:05:42.504Z,1022.26
2019-05-15T03:06:55.130Z,1022.25
2019-05-15T03:08:10.256Z,1022.29
2019-05-15T03:09:22.562Z,1022.3
2019-05-15T03:10:35.093Z,1022.26
2019-05-15T03:11:50.344Z,1022.26
2019-05-15T03:13:01.569Z,1022.23
2019-05-15T03:14:14.639Z,1022.28
2019-05-15T03:15:29.705Z,1022.28
2019-05-15T03:16:42.743Z,1022.28
2019-05-15T03:17:55.051Z,1022.34
2019-05-15T03:19:10.289Z,1022.31
2019-05-15T03:20:22.316Z,1022.3
2019-05-15T03:21:34.907Z,1022.34
2019-05-15T03:22:50.089Z,1022.35
2019-05-15T03:24:02.441Z,1022.34
2019-05-15T03:25:15.056Z,1022.33
2019-05-15T03:26:30.158Z,1022.31
2019-05-15T03:27:42.365Z,1022.31
2019-05-15T03:28:55.230Z,1022.29
2019-05-15T03:30:14.777Z,1022.28
2019-05-15T03:32:24.698Z,1022.31
2019-05-15T03:34:30.448Z,1022.28
2019-05-15T03:36:14.351Z,1022.27
2019-05-15T03:37:39.455Z,1022.25
2019-05-15T03:38:52.202Z,1022.23
2019-05-15T03:40:03.751Z,1022.25
2019-05-15T03:41:15.518Z,1022.25
2019-05-15T03:42:30.226Z,1022.24
2019-05-15T03:43:42.377Z,1022.28
2019-05-15T03:44:54.923Z,1022.25
2019-05-15T03:46:10.458Z,1022.25
2019-05-15T03:47:22.946Z,1022.28
2019-05-15T03:48:35.242Z,1022.26
2019-05-15T03:49:49.549Z,1022.21
2019-05-15T03:51:02.884Z,1022.26
2019-05-15T03:52:14.279Z,1022.27
2019-05-15T03:53:30.159Z,1022.24
2019-05-15T03:54:43.041Z,1022.23
2019-05-15T03:55:54.831Z,1022.21
2019-05-15T03:57:10.095Z,1022.22
2019-05-15T03:58:28.465Z,1022.24
2019-05-15T03:59:40.781Z,1022.22
2019-05-15T04:00:51.909Z,1022.2
2019-05-15T04:02:28.730Z,1022.21
2019-05-15T04:03:42.061Z,1022.24
2019-05-15T04:04:57.964Z,1022.21
2019-05-15T04:06:15.062Z,1022.16
2019-05-15T04:07:30.284Z,1022.23
2019-05-15T04:08:42.502Z,1022.19
2019-05-15T04:09:55.031Z,1022.21
2019-05-15T04:11:10.095Z,1022.18
2019-05-15T04:12:23.153Z,1022.23
2019-05-15T04:13:40.038Z,1022.21
2019-05-15T04:14:52.738Z,1022.26
2019-05-15T04:16:04.936Z,1022.23
2019-05-15T04:17:19.937Z,1022.17
2019-05-15T04:18:32.394Z,1022.2
2019-05-15T04:19:44.647Z,1022.18
2019-05-15T04:21:00.077Z,1022.16
2019-05-15T04:22:11.702Z,1022.13
2019-05-15T04:23:24.738Z,1022.13
2019-05-15T04:24:39.860Z,1022.15
2019-05-15T04:25:52.365Z,1022.16
2019-05-15T04:27:07.082Z,1022.15
2019-05-15T04:28:22.612Z,1022.1
2019-05-15T04:29:34.384Z,1022.12
2019-05-15T04:30:49.734Z,1022.08
2019-05-15T04:32:05.723Z,1022.1
2019-05-15T04:33:20.569Z,1022.08
2019-05-15T04:34:32.315Z,1022.07
2019-05-15T04:35:44.942Z,1022.04
2019-05-15T04:36:59.531Z,1022.03
2019-05-15T04:38:12.322Z,1022.06
2019-05-15T04:39:24.707Z,1022.1
2019-05-15T04:40:40.408Z,1022.08
2019-05-15T04:41:53.002Z,1022.09
2019-05-15T04:43:04.067Z,1022.09
2019-05-15T04:44:20.020Z,1022.06
2019-05-15T04:45:34.862Z,1022.06
2019-05-15T04:46:50.188Z,1022
2019-05-15T04:48:02.442Z,1022.03
2019-05-15T04:49:15.577Z,1022.05
2019-05-15T04:50:29.758Z,1022.07
2019-05-15T04:51:42.748Z,1022.02
2019-05-15T04:53:00.794Z,1021.97
2019-05-15T04:54:13.675Z,1022.01
2019-05-15T04:55:25.094Z,1022.02
2019-05-15T04:56:40.530Z,1022
2019-05-15T04:57:51.895Z,1021.98
2019-05-15T04:59:04.323Z,1022.02
2019-05-15T05:00:20.230Z,1022.02
2019-05-15T05:01:31.924Z,1022.01
2019-05-15T05:02:45.438Z,1021.99
2019-05-15T05:03:59.345Z,1022.02
2019-05-15T05:05:12.237Z,1022.01
2019-05-15T05:06:24.139Z,1022.03
2019-05-15T05:07:39.505Z,1022.07
2019-05-15T05:08:52.005Z,1022.08
2019-05-15T05:10:04.565Z,1022.09
2019-05-15T05:11:23.717Z,1022.11
2019-05-15T05:12:41.435Z,1022.1
2019-05-15T05:13:58.935Z,1022.11
2019-05-15T05:15:11.454Z,1022.1
2019-05-15T05:16:24.235Z,1022.11
2019-05-15T05:17:39.905Z,1022.14
2019-05-15T05:18:51.859Z,1022.05
2019-05-15T05:20:04.608Z,1022.02
2019-05-15T05:21:15.716Z,1022.04
2019-05-15T05:22:28.363Z,1022.03
2019-05-15T05:23:39.903Z,1022.07
2019-05-15T05:24:51.279Z,1022.06
2019-05-15T05:26:03.424Z,1022.04
2019-05-15T05:27:21.298Z,1022.05
2019-05-15T05:28:31.749Z,1022.03
2019-05-15T05:29:43.247Z,1022.05
2019-05-15T05:30:55.141Z,1022.06
2019-05-15T05:32:09.242Z,1022.07
2019-05-15T05:33:39.686Z,1022.14
2019-05-15T05:34:51.505Z,1022.13
2019-05-15T05:36:01.585Z,1022.07
2019-05-15T05:37:13.391Z,1022.08
2019-05-15T05:38:23.580Z,1022.07
2019-05-15T05:39:35.634Z,1022.03
2019-05-15T05:40:49.637Z,1022.03
2019-05-15T05:42:01.605Z,1022.09
2019-05-15T05:43:12.911Z,1022.06
2019-05-15T05:44:23.686Z,1022.07
2019-05-15T05:45:34.430Z,1022.03
2019-05-15T05:46:45.725Z,1022.06
2019-05-15T05:47:58.669Z,1022.12
2019-05-15T05:49:09.411Z,1022.04
2019-05-15T05:50:21.357Z,1022.08
2019-05-15T05:51:34.055Z,1022.05
2019-05-15T05:52:49.037Z,1022.01
2019-05-15T05:54:00.821Z,1022.07
2019-05-15T05:55:11.325Z,1021.97
2019-05-15T05:56:22.902Z,1022.04
2019-05-15T05:57:34.100Z,1022.02
2019-05-15T05:58:45.769Z,1022.02
2019-05-15T05:59:59.223Z,1022
2019-05-15T06:01:12.073Z,1021.95
2019-05-15T06:02:24.065Z,1021.94
2019-05-15T06:03:54.832Z,1021.94
2019-05-15T06:05:08.279Z,1021.96
2019-05-15T06:06:19.501Z,1021.9
2019-05-15T06:07:32.004Z,1021.91
2019-05-15T06:08:44.045Z,1021.94
2019-05-15T06:09:55.458Z,1021.93
2019-05-15T06:11:05.547Z,1021.94
2019-05-15T06:12:19.061Z,1021.86
2019-05-15T06:13:31.104Z,1021.89
2019-05-15T06:14:43.508Z,1021.94
2019-05-15T06:15:59.027Z,1021.95
2019-05-15T06:17:11.232Z,1021.9
2019-05-15T06:18:22.029Z,1021.92
2019-05-15T06:19:33.246Z,1021.89
2019-05-15T06:20:43.660Z,1021.88
2019-05-15T06:21:58.086Z,1021.87
2019-05-15T06:23:11.693Z,1021.84
2019-05-15T06:24:37.790Z,1021.88
2019-05-15T06:25:49.054Z,1021.86
2019-05-15T06:26:59.790Z,1021.89
2019-05-15T06:28:11.089Z,1021.87
2019-05-15T06:29:24.460Z,1021.87
2019-05-15T06:30:38.371Z,1021.9
2019-05-15T06:31:49.172Z,1021.78
2019-05-15T06:33:08.464Z,1021.9
2019-05-15T06:34:21.870Z,1021.87
2019-05-15T06:35:33.832Z,1021.89
2019-05-15T06:36:44.548Z,1021.89
2019-05-15T06:37:58.914Z,1021.87
2019-05-15T06:39:11.477Z,1021.87
2019-05-15T06:40:23.155Z,1021.9
2019-05-15T06:41:34.216Z,1021.9
2019-05-15T06:42:48.864Z,1021.9
2019-05-15T06:43:59.878Z,1021.77
2019-05-15T06:45:10.848Z,1021.87
2019-05-15T06:46:21.787Z,1021.91
2019-05-15T06:47:34.420Z,1021.91
2019-05-15T06:48:48.875Z,1021.86
2019-05-15T06:50:00.632Z,1021.93
2019-05-15T06:51:11.535Z,1021.86
2019-05-15T06:52:23.420Z,1021.95
2019-05-15T06:53:38.659Z,1021.92
2019-05-15T06:54:49.742Z,1021.9
2019-05-15T06:55:59.834Z,1021.93
2019-05-15T06:57:10.873Z,1021.96
2019-05-15T06:58:25.215Z,1021.98
2019-05-15T06:59:39.158Z,1021.9
2019-05-15T07:00:51.229Z,1021.91
2019-05-15T07:02:01.904Z,1021.87
2019-05-15T07:03:21.237Z,1021.8
2019-05-15T07:04:39.548Z,1021.79
2019-05-15T07:05:51.649Z,1021.85
2019-05-15T07:07:08.207Z,1021.83
2019-05-15T07:08:21.147Z,1021.8
2019-05-15T07:09:34.063Z,1021.82
2019-05-15T07:10:45.474Z,1021.78
2019-05-15T07:11:59.009Z,1021.75
2019-05-15T07:13:10.950Z,1021.73
2019-05-15T07:14:23.103Z,1021.74
2019-05-15T07:15:34.090Z,1021.75
2019-05-15T07:16:48.463Z,1021.76
2019-05-15T07:17:59.527Z,1021.74
2019-05-15T07:19:11.664Z,1021.7
2019-05-15T07:20:24.072Z,1021.74
2019-05-15T07:21:38.692Z,1021.7
2019-05-15T07:22:51.487Z,1021.73
2019-05-15T07:24:03.874Z,1021.65
2019-05-15T07:25:18.933Z,1021.64
2019-05-15T07:26:29.614Z,1021.64
2019-05-15T07:27:42.016Z,1021.65
2019-05-15T07:28:53.132Z,1021.65
2019-05-15T07:30:07.638Z,1021.66
2019-05-15T07:31:21.655Z,1021.62
2019-05-15T07:32:31.789Z,1021.6
2019-05-15T07:33:44.684Z,1021.58
2019-05-15T07:34:57.824Z,1021.61
2019-05-15T07:36:08.968Z,1021.52
2019-05-15T07:37:22.014Z,1021.56
2019-05-15T07:38:34.157Z,1021.55
2019-05-15T07:39:49.004Z,1021.64
2019-05-15T07:41:03.910Z,1021.59
2019-05-15T07:42:19.042Z,1021.6
2019-05-15T07:43:29.668Z,1021.53
2019-05-15T07:44:41.367Z,1021.56
2019-05-15T07:45:55.466Z,1021.61
2019-05-15T07:47:09.037Z,1021.65
2019-05-15T07:48:21.885Z,1021.65
2019-05-15T07:49:34.279Z,1021.6
2019-05-15T07:50:50.067Z,1021.65
2019-05-15T07:52:02.173Z,1021.68
2019-05-15T07:53:13.902Z,1021.67
2019-05-15T07:54:25.191Z,1021.71
2019-05-15T07:55:39.422Z,1021.66
2019-05-15T07:56:52.834Z,1021.62
2019-05-15T07:58:03.265Z,1021.6
2019-05-15T07:59:18.507Z,1021.67
2019-05-15T08:00:30.824Z,1021.74
2019-05-15T08:01:42.392Z,1021.73
2019-05-15T08:02:54.242Z,1021.68
2019-05-15T08:04:22.477Z,1021.72
2019-05-15T08:05:54.922Z,1021.7
2019-05-15T08:07:11.481Z,1021.68
2019-05-15T08:08:23.476Z,1021.68
2019-05-15T08:09:38.889Z,1021.7
2019-05-15T08:10:51.142Z,1021.69
2019-05-15T08:12:24.531Z,1021.62
2019-05-15T08:13:38.157Z,1021.69
2019-05-15T08:14:50.810Z,1021.71
2019-05-15T08:16:03.166Z,1021.68
2019-05-15T08:17:13.887Z,1021.65
2019-05-15T08:18:31.812Z,1021.65
2019-05-15T08:19:42.401Z,1021.65
2019-05-15T08:20:53.723Z,1021.61
2019-05-15T08:22:06.049Z,1021.63
2019-05-15T08:23:19.549Z,1021.62
2019-05-15T08:24:31.369Z,1021.6
2019-05-15T08:25:41.826Z,1021.65
2019-05-15T08:26:53.868Z,1021.57
2019-05-15T08:28:08.244Z,1021.54
2019-05-15T08:29:21.746Z,1021.61
2019-05-15T08:30:33.797Z,1021.56
2019-05-15T08:31:48.211Z,1021.58
2019-05-15T08:32:59.573Z,1021.6
2019-05-15T08:34:15.427Z,1021.56
2019-05-15T08:35:29.246Z,1021.58
2019-05-15T08:36:48.167Z,1021.5
2019-05-15T08:37:59.571Z,1021.53
2019-05-15T08:39:14.776Z,1021.4
2019-05-15T08:40:28.985Z,1021.5
2019-05-15T08:41:43.728Z,1021.47
2019-05-15T08:42:59.274Z,1021.44
2019-05-15T08:44:14.305Z,1021.41
2019-05-15T08:45:28.242Z,1021.46
2019-05-15T08:46:39.689Z,1021.41
2019-05-15T08:47:53.115Z,1021.45
2019-05-15T08:49:03.730Z,1021.4
2019-05-15T08:50:14.478Z,1021.43
2019-05-15T08:51:28.010Z,1021.42
2019-05-15T08:52:40.912Z,1021.37
2019-05-15T08:53:51.411Z,1021.38
2019-05-15T08:55:03.292Z,1021.36
2019-05-15T08:56:15.808Z,1021.3
2019-05-15T08:57:29.480Z,1021.33
2019-05-15T08:58:41.011Z,1021.31
2019-05-15T08:59:51.599Z,1021.36
2019-05-15T09:01:03.618Z,1021.38
2019-05-15T09:02:15.170Z,1021.28
2019-05-15T09:03:28.449Z,1021.23
2019-05-15T09:04:40.869Z,1021.24
2019-05-15T09:05:51.590Z,1021.3
2019-05-15T09:07:03.906Z,1021.28
2019-05-15T09:08:19.581Z,1021.21
2019-05-15T09:09:32.290Z,1021.21
2019-05-15T09:10:43.645Z,1021.2
2019-05-15T09:11:55.475Z,1021.23
2019-05-15T09:13:09.546Z,1021.18
2019-05-15T09:14:21.996Z,1021.12
2019-05-15T09:15:33.885Z,1021.17
2019-05-15T09:16:49.121Z,1021.14
2019-05-15T09:18:12.190Z,1021.1
2019-05-15T09:19:28.985Z,1021.08
2019-05-15T09:20:39.357Z,1021.16
2019-05-15T09:21:52.226Z,1021.15
2019-05-15T09:23:03.847Z,1021.2
2019-05-15T09:24:20.011Z,1021.12
2019-05-15T09:25:31.240Z,1021.07
2019-05-15T09:26:41.913Z,1021.08
2019-05-15T09:27:54.024Z,1021.03
2019-05-15T09:29:05.338Z,1021.01
2019-05-15T09:30:18.876Z,1021.01
2019-05-15T09:31:31.118Z,1021
2019-05-15T09:32:41.865Z,1021
2019-05-15T09:33:53.753Z,1021
2019-05-15T09:35:08.287Z,1020.99
2019-05-15T09:36:20.067Z,1020.93
2019-05-15T09:37:33.597Z,1020.95
2019-05-15T09:38:48.845Z,1020.92
2019-05-15T09:40:01.343Z,1020.94
2019-05-15T09:41:13.737Z,1020.96
2019-05-15T09:42:25.641Z,1020.91
2019-05-15T09:43:42.181Z,1020.98
2019-05-15T09:44:53.845Z,1020.94
2019-05-15T09:46:07.480Z,1020.93
2019-05-15T09:47:21.223Z,1020.92
2019-05-15T09:48:32.623Z,1020.89
2019-05-15T09:49:49.134Z,1020.88
2019-05-15T09:50:59.461Z,1020.85
2019-05-15T09:52:11.777Z,1020.8
2019-05-15T09:53:30.595Z,1020.83
2019-05-15T09:54:42.458Z,1020.86
2019-05-15T09:55:54.322Z,1020.76
2019-05-15T09:57:05.305Z,1020.81
2019-05-15T09:58:20.491Z,1020.73
2019-05-15T09:59:32.799Z,1020.76
2019-05-15T10:00:44.175Z,1020.74
2019-05-15T10:01:59.333Z,1020.78
2019-05-15T10:03:11.966Z,1020.76
2019-05-15T10:04:24.299Z,1020.76
2019-05-15T10:05:38.637Z,1020.72
2019-05-15T10:06:51.072Z,1020.69
2019-05-15T10:08:01.114Z,1020.74
2019-05-15T10:09:11.661Z,1020.68
2019-05-15T10:10:23.982Z,1020.65
2019-05-15T10:11:38.489Z,1020.63
2019-05-15T10:12:49.747Z,1020.64
2019-05-15T10:14:02.598Z,1020.58
2019-05-15T10:15:15.133Z,1020.56
2019-05-15T10:16:26.318Z,1020.6
2019-05-15T10:17:36.309Z,1020.54
2019-05-15T10:18:50.732Z,1020.53
2019-05-15T10:20:03.455Z,1020.5
2019-05-15T10:21:14.471Z,1020.46
2019-05-15T10:22:33.476Z,1020.52
2019-05-15T10:23:43.480Z,1020.42
2019-05-15T10:24:59.615Z,1020.44
2019-05-15T10:26:13.504Z,1020.45
2019-05-15T10:27:29.076Z,1020.45
2019-05-15T10:28:40.495Z,1020.41
2019-05-15T10:29:52.117Z,1020.39
2019-05-15T10:31:04.121Z,1020.4
2019-05-15T10:32:19.144Z,1020.38
2019-05-15T10:33:31.654Z,1020.41
2019-05-15T10:34:44.459Z,1020.36
2019-05-15T10:35:54.420Z,1020.42
2019-05-15T10:37:08.960Z,1020.41
2019-05-15T10:38:21.349Z,1020.38
2019-05-15T10:39:33.646Z,1020.36
2019-05-15T10:40:59.708Z,1020.41
2019-05-15T10:42:24.108Z,1020.39
2019-05-15T10:43:44.520Z,1020.33
2019-05-15T10:45:05.445Z,1020.3
2019-05-15T10:46:15.827Z,1020.32
2019-05-15T10:47:28.874Z,1020.36
2019-05-15T10:48:41.859Z,1020.34
2019-05-15T10:49:54.670Z,1020.31
2019-05-15T10:51:07.023Z,1020.26
2019-05-15T10:52:20.185Z,1020.22
2019-05-15T10:53:31.640Z,1020.18
2019-05-15T10:54:44.130Z,1020.13
2019-05-15T10:55:54.109Z,1020.15
2019-05-15T10:57:08.492Z,1020.12
2019-05-15T10:58:21.864Z,1020.14
2019-05-15T10:59:33.581Z,1020.16
2019-05-15T11:00:43.575Z,1020.11
2019-05-15T11:02:02.231Z,1020.11
2019-05-15T11:03:13.635Z,1020.15
2019-05-15T11:04:25.065Z,1020.12
2019-05-15T11:05:44.843Z,1020.11
2019-05-15T11:06:58.471Z,1020.1
2019-05-15T11:08:10.363Z,1020.02
2019-05-15T11:09:21.858Z,1020.04
2019-05-15T11:10:33.943Z,1020.02
2019-05-15T11:11:51.832Z,1020.06
2019-05-15T11:13:03.398Z,1020.02
2019-05-15T11:14:14.307Z,1020.02
2019-05-15T11:15:28.860Z,1020.01
2019-05-15T11:16:44.747Z,1019.98
2019-05-15T11:17:58.403Z,1019.96
2019-05-15T11:19:09.601Z,1019.95
2019-05-15T11:20:19.571Z,1019.94
2019-05-15T11:21:29.591Z,1019.9
2019-05-15T11:22:42.849Z,1019.91
2019-05-15T11:23:55.079Z,1019.97
2019-05-15T11:25:09.739Z,1019.95
2019-05-15T11:26:20.107Z,1019.95
2019-05-15T11:27:38.828Z,1019.99
2019-05-15T11:28:51.209Z,1019.86
2019-05-15T11:30:03.789Z,1019.9
2019-05-15T11:31:15.399Z,1019.91
2019-05-15T11:32:29.523Z,1019.95
2019-05-15T11:33:42.205Z,1019.83
2019-05-15T11:34:54.569Z,1019.88
2019-05-15T11:36:09.434Z,1019.85
2019-05-15T11:37:21.434Z,1019.82
2019-05-15T11:38:33.602Z,1019.87
2019-05-15T11:39:47.001Z,1019.85
2019-05-15T11:40:59.512Z,1019.84
2019-05-15T11:42:13.992Z,1019.84
2019-05-15T11:43:25.565Z,1019.85
2019-05-15T11:44:39.133Z,1019.85
2019-05-15T11:45:53.817Z,1019.78
2019-05-15T11:47:06.417Z,1019.82
2019-05-15T11:48:16.127Z,1019.78
2019-05-15T11:49:30.537Z,1019.76
2019-05-15T11:50:41.324Z,1019.72
2019-05-15T11:51:51.435Z,1019.7
2019-05-15T11:53:08.484Z,1019.7
2019-05-15T11:54:19.827Z,1019.66
2019-05-15T11:55:31.255Z,1019.69
2019-05-15T11:56:43.557Z,1019.67
2019-05-15T11:57:56.192Z,1019.64
2019-05-15T11:59:09.723Z,1019.62
2019-05-15T12:00:26.697Z,1019.65
2019-05-15T12:01:38.728Z,1019.71
2019-05-15T12:02:49.428Z,1019.66
2019-05-15T12:04:01.376Z,1019.63
2019-05-15T12:05:34.512Z,1019.59
2019-05-15T12:06:58.153Z,1019.62
2019-05-15T12:08:12.592Z,1019.55
2019-05-15T12:09:23.615Z,1019.63
2019-05-15T12:10:38.661Z,1019.56
2019-05-15T12:11:48.829Z,1019.48
2019-05-15T12:12:58.767Z,1019.51
2019-05-15T12:14:10.324Z,1019.52
2019-05-15T12:15:22.439Z,1019.48
2019-05-15T12:16:36.082Z,1019.44
2019-05-15T12:18:15.161Z,1019.37
2019-05-15T12:19:25.169Z,1019.42
2019-05-15T12:20:39.598Z,1019.41
2019-05-15T12:21:51.327Z,1019.34
2019-05-15T12:25:02.600Z,1019.33
2019-05-15T12:26:15.184Z,1019.38
2019-05-15T12:27:25.188Z,1019.39
2019-05-15T12:28:36.091Z,1019.39
2019-05-15T12:31:49.861Z,1019.3
2019-05-15T12:33:25.664Z,1019.33
2019-05-15T12:34:39.104Z,1019.32
2019-05-15T12:35:52.268Z,1019.25
2019-05-15T12:37:02.006Z,1019.23
2019-05-15T12:38:15.140Z,1019.28
2019-05-15T12:39:30.269Z,1019.23
2019-05-15T13:00:45.244Z,1019.25
2019-05-15T13:01:58.649Z,1019.23
2019-05-15T13:03:10.956Z,1019.23
2019-05-15T13:04:21.173Z,1019.31
2019-05-15T13:05:33.699Z,1019.28
2019-05-15T13:07:04.255Z,1019.3
2019-05-15T13:08:29.304Z,1019.26
2019-05-15T13:09:41.478Z,1019.25
2019-05-15T13:10:51.606Z,1019.25
2019-05-15T13:12:01.322Z,1019.27
2019-05-15T13:13:13.691Z,1019.27
2019-05-15T13:14:23.992Z,1019.33
2019-05-15T13:15:35.782Z,1019.33
2019-05-15T13:16:51.131Z,1019.25
2019-05-15T13:18:02.128Z,1019.29
2019-05-15T13:19:20.810Z,1019.25
2019-05-15T13:20:33.616Z,1019.25
2019-05-15T13:21:45.986Z,1019.26
2019-05-15T13:23:00.854Z,1019.25
2019-05-15T13:24:10.806Z,1019.19
2019-05-15T13:25:23.373Z,1019.32
2019-05-15T13:26:35.394Z,1019.3
2019-05-15T13:27:48.781Z,1019.29
2019-05-15T13:29:00.848Z,1019.3
2019-05-15T13:30:11.901Z,1019.31
2019-05-15T13:31:23.658Z,1019.33
2019-05-15T13:32:35.977Z,1019.26
2019-05-15T13:33:50.324Z,1019.23
2019-05-15T13:35:01.690Z,1019.24
2019-05-15T13:36:14.990Z,1019.25
2019-05-15T13:37:30.832Z,1019.23
2019-05-15T13:38:44.048Z,1019.21
2019-05-15T13:39:58.742Z,1019.22
2019-05-15T13:41:09.369Z,1019.2
2019-05-15T13:42:21.928Z,1019.17
2019-05-15T13:43:33.060Z,1019.18
2019-05-15T13:44:43.823Z,1019.15
2019-05-15T13:45:53.533Z,1019.15
2019-05-15T13:47:05.630Z,1019.13
2019-05-15T13:48:19.918Z,1019.11
2019-05-15T13:49:32.408Z,1019.11
2019-05-15T13:50:43.922Z,1019.09
2019-05-15T13:51:55.921Z,1019.09
2019-05-15T13:53:10.406Z,1019.02
2019-05-15T13:54:21.322Z,1018.99
2019-05-15T13:55:36.083Z,1018.92
2019-05-15T13:56:51.031Z,1018.96
2019-05-15T13:58:03.192Z,1018.94
2019-05-15T13:59:14.034Z,1018.94
2019-05-15T14:00:24.040Z,1018.92
2019-05-15T14:01:39.593Z,1018.96
2019-05-15T14:02:51.339Z,1018.91
2019-05-15T14:04:01.353Z,1018.87
2019-05-15T14:05:13.734Z,1018.84
2019-05-15T14:06:23.727Z,1018.87
2019-05-15T14:07:48.549Z,1018.86
2019-05-15T14:09:03.616Z,1018.85
2019-05-15T14:10:18.086Z,1018.82
2019-05-15T14:11:30.823Z,1018.82
2019-05-15T14:12:44.252Z,1018.81
2019-05-15T14:13:55.505Z,1018.77
2019-05-15T14:15:08.976Z,1018.72
2019-05-15T14:16:19.398Z,1018.73
2019-05-15T14:17:31.218Z,1018.71
2019-05-15T14:18:42.938Z,1018.73
2019-05-15T14:19:53.015Z,1018.68
2019-05-15T14:21:03.281Z,1018.74
2019-05-15T14:22:14.292Z,1018.71
2019-05-15T14:23:24.266Z,1018.68
2019-05-15T14:24:38.964Z,1018.68
2019-05-15T14:25:51.697Z,1018.66
2019-05-15T14:27:24.413Z,1018.67
2019-05-15T14:28:40.108Z,1018.64
2019-05-15T14:29:51.021Z,1018.66
2019-05-15T14:31:03.125Z,1018.61
2019-05-15T14:32:15.164Z,1018.56
2019-05-15T14:33:44.013Z,1018.53
2019-05-15T14:34:58.637Z,1018.58
2019-05-15T14:36:09.630Z,1018.56
2019-05-15T14:37:21.167Z,1018.54
2019-05-15T14:38:33.740Z,1018.52
2019-05-15T14:39:45.579Z,1018.53
2019-05-15T14:41:00.889Z,1018.48
2019-05-15T14:42:11.761Z,1018.46
2019-05-15T14:43:24.500Z,1018.41
2019-05-15T14:44:39.046Z,1018.4
2019-05-15T14:45:51.403Z,1018.38
2019-05-15T14:47:03.906Z,1018.39
2019-05-15T14:48:16.143Z,1018.3
2019-05-15T14:49:34.163Z,1018.29
2019-05-15T14:50:54.761Z,1018.29
2019-05-15T14:52:09.138Z,1018.3
2019-05-15T14:53:20.845Z,1018.26
2019-05-15T14:54:32.184Z,1018.29
2019-05-15T14:55:44.328Z,1018.28
2019-05-15T14:57:00.763Z,1018.28
2019-05-15T14:58:11.341Z,1018.27
2019-05-15T14:59:25.113Z,1018.24
2019-05-15T15:00:35.549Z,1018.24
2019-05-15T15:01:53.025Z,1018.21
2019-05-15T15:03:03.373Z,1018.25
2019-05-15T15:04:15.162Z,1018.26
2019-05-15T15:05:26.168Z,1018.25
2019-05-15T15:06:36.167Z,1018.19
2019-05-15T15:07:48.782Z,1018.23
2019-05-15T15:09:18.857Z,1018.26
2019-05-15T15:10:31.108Z,1018.17
2019-05-15T15:11:43.557Z,1018.19
2019-05-15T15:12:55.466Z,1018.17
2019-05-15T15:14:08.384Z,1018.21
2019-05-15T15:15:20.816Z,1018.16
2019-05-15T15:16:31.393Z,1018.11
2019-05-15T15:17:43.892Z,1018.16